sensor_id;sensor_type;location;lat;lon;timestamp;P1;durP1;ratioP1;P2;durP2;ratioP2
16478;SDS011;8350;52.316;10.530;2022-10-16T00:02:11;1.88;;;1.02;;
16478;SDS011;8350;52.316;10.530;2022-10-16T00:04:40;2.72;;;1.20;;
16478;SDS011;8350;52.316;10.530;2022-10-16T00:07:07;1.77;;;1.50;;
16478;SDS011;8350;52.316;10.530;2022-10-16T00:09:34;2.67;;;1.00;;
16478;SDS011;8350;52.316;10.530;2022-10-16T00:12:01;1.45;;;1.30;;
16478;SDS011;8350;52.316;10.530;2022-10-16T00:14:29;2.63;;;1.13;;
16478;SDS011;8350;52.316;10.530;2022-10-16T00:16:56;1.90;;;1.30;;
16478;SDS011;8350;52.316;10.530;2022-10-16T00:19:23;3.20;;;1.10;;
16478;SDS011;8350;52.316;10.530;2022-10-16T00:21:51;2.17;;;1.10;;
16478;SDS011;8350;52.316;10.530;2022-10-16T00:24:18;1.15;;;1.08;;
16478;SDS011;8350;52.316;10.530;2022-10-16T00:26:45;1.10;;;1.10;;
16478;SDS011;8350;52.316;10.530;2022-10-16T00:29:16;1.50;;;1.40;;
16478;SDS011;8350;52.316;10.530;2022-10-16T00:31:43;1.70;;;1.60;;
16478;SDS011;8350;52.316;10.530;2022-10-16T00:34:10;1.70;;;1.60;;
16478;SDS011;8350;52.316;10.530;2022-10-16T00:36:37;2.50;;;1.48;;
16478;SDS011;8350;52.316;10.530;2022-10-16T00:39:05;2.28;;;1.48;;
16478;SDS011;8350;52.316;10.530;2022-10-16T00:41:33;1.40;;;1.30;;
16478;SDS011;8350;52.316;10.530;2022-10-16T00:44:01;2.10;;;1.50;;
16478;SDS011;8350;52.316;10.530;2022-10-16T00:46:30;2.55;;;1.50;;
16478;SDS011;8350;52.316;10.530;2022-10-16T00:49:03;1.80;;;1.70;;
16478;SDS011;8350;52.316;10.530;2022-10-16T00:51:34;2.05;;;1.75;;
16478;SDS011;8350;52.316;10.530;2022-10-16T00:54:04;1.73;;;1.63;;
16478;SDS011;8350;52.316;10.530;2022-10-16T00:56:34;2.08;;;1.70;;
16478;SDS011;8350;52.316;10.530;2022-10-16T00:59:02;2.65;;;1.63;;
16478;SDS011;8350;52.316;10.530;2022-10-16T01:01:32;1.75;;;1.65;;
16478;SDS011;8350;52.316;10.530;2022-10-16T01:03:59;2.08;;;1.95;;
16478;SDS011;8350;52.316;10.530;2022-10-16T01:06:28;3.05;;;2.13;;
16478;SDS011;8350;52.316;10.530;2022-10-16T01:09:13;2.47;;;1.88;;
16478;SDS011;8350;52.316;10.530;2022-10-16T01:11:49;3.53;;;2.38;;
16478;SDS011;8350;52.316;10.530;2022-10-16T01:14:26;3.80;;;1.95;;
16478;SDS011;8350;52.316;10.530;2022-10-16T01:17:04;2.50;;;2.30;;
16478;SDS011;8350;52.316;10.530;2022-10-16T01:19:42;5.55;;;2.75;;
16478;SDS011;8350;52.316;10.530;2022-10-16T01:22:17;4.90;;;2.45;;
16478;SDS011;8350;52.316;10.530;2022-10-16T01:24:49;3.67;;;2.60;;
16478;SDS011;8350;52.316;10.530;2022-10-16T01:27:18;3.65;;;3.08;;
16478;SDS011;8350;52.316;10.530;2022-10-16T01:29:52;2.72;;;2.42;;
16478;SDS011;8350;52.316;10.530;2022-10-16T01:32:23;3.38;;;2.35;;
16478;SDS011;8350;52.316;10.530;2022-10-16T01:34:59;2.78;;;2.30;;
16478;SDS011;8350;52.316;10.530;2022-10-16T01:37:32;2.97;;;2.60;;
16478;SDS011;8350;52.316;10.530;2022-10-16T01:40:03;4.32;;;2.35;;
16478;SDS011;8350;52.316;10.530;2022-10-16T01:42:37;3.55;;;2.40;;
16478;SDS011;8350;52.316;10.530;2022-10-16T01:45:07;2.50;;;2.30;;
16478;SDS011;8350;52.316;10.530;2022-10-16T01:47:38;2.65;;;2.28;;
16478;SDS011;8350;52.316;10.530;2022-10-16T01:50:07;3.40;;;2.40;;
16478;SDS011;8350;52.316;10.530;2022-10-16T01:52:40;2.90;;;2.10;;
16478;SDS011;8350;52.316;10.530;2022-10-16T01:55:10;3.20;;;2.40;;
16478;SDS011;8350;52.316;10.530;2022-10-16T01:57:42;2.60;;;2.10;;
16478;SDS011;8350;52.316;10.530;2022-10-16T02:00:13;2.28;;;2.10;;
16478;SDS011;8350;52.316;10.530;2022-10-16T02:02:43;2.17;;;1.85;;
16478;SDS011;8350;52.316;10.530;2022-10-16T02:05:15;3.17;;;2.17;;
16478;SDS011;8350;52.316;10.530;2022-10-16T02:07:47;3.63;;;2.00;;
16478;SDS011;8350;52.316;10.530;2022-10-16T02:10:15;2.75;;;2.13;;
16478;SDS011;8350;52.316;10.530;2022-10-16T02:12:44;2.55;;;2.20;;
16478;SDS011;8350;52.316;10.530;2022-10-16T02:15:15;3.38;;;2.33;;
16478;SDS011;8350;52.316;10.530;2022-10-16T02:17:42;2.25;;;2.05;;
16478;SDS011;8350;52.316;10.530;2022-10-16T02:20:10;3.53;;;2.10;;
16478;SDS011;8350;52.316;10.530;2022-10-16T02:22:38;4.45;;;2.58;;
16478;SDS011;8350;52.316;10.530;2022-10-16T02:25:09;3.08;;;1.98;;
16478;SDS011;8350;52.316;10.530;2022-10-16T02:27:39;2.28;;;2.00;;
16478;SDS011;8350;52.316;10.530;2022-10-16T02:30:11;2.40;;;2.20;;
16478;SDS011;8350;52.316;10.530;2022-10-16T02:32:42;2.80;;;2.15;;
16478;SDS011;8350;52.316;10.530;2022-10-16T02:35:12;2.50;;;2.30;;
16478;SDS011;8350;52.316;10.530;2022-10-16T02:37:39;3.55;;;2.00;;
16478;SDS011;8350;52.316;10.530;2022-10-16T02:40:08;3.60;;;2.20;;
16478;SDS011;8350;52.316;10.530;2022-10-16T02:42:37;3.58;;;1.90;;
16478;SDS011;8350;52.316;10.530;2022-10-16T02:45:06;3.53;;;2.20;;
16478;SDS011;8350;52.316;10.530;2022-10-16T02:47:36;4.05;;;2.00;;
16478;SDS011;8350;52.316;10.530;2022-10-16T02:50:04;2.97;;;1.60;;
16478;SDS011;8350;52.316;10.530;2022-10-16T02:52:31;2.42;;;1.55;;
16478;SDS011;8350;52.316;10.530;2022-10-16T02:54:58;2.63;;;1.85;;
16478;SDS011;8350;52.316;10.530;2022-10-16T02:57:25;1.80;;;1.70;;
16478;SDS011;8350;52.316;10.530;2022-10-16T03:00:00;3.10;;;1.85;;
16478;SDS011;8350;52.316;10.530;2022-10-16T03:02:27;2.55;;;1.80;;
16478;SDS011;8350;52.316;10.530;2022-10-16T03:04:55;2.10;;;1.90;;
16478;SDS011;8350;52.316;10.530;2022-10-16T03:07:22;3.10;;;1.50;;
16478;SDS011;8350;52.316;10.530;2022-10-16T03:09:49;2.47;;;1.80;;
16478;SDS011;8350;52.316;10.530;2022-10-16T03:12:16;2.38;;;1.90;;
16478;SDS011;8350;52.316;10.530;2022-10-16T03:14:44;3.90;;;1.90;;
16478;SDS011;8350;52.316;10.530;2022-10-16T03:17:11;1.98;;;1.85;;
16478;SDS011;8350;52.316;10.530;2022-10-16T03:19:38;2.35;;;1.83;;
16478;SDS011;8350;52.316;10.530;2022-10-16T03:22:07;2.50;;;1.55;;
16478;SDS011;8350;52.316;10.530;2022-10-16T03:24:34;2.53;;;1.90;;
16478;SDS011;8350;52.316;10.530;2022-10-16T03:27:01;4.03;;;2.13;;
16478;SDS011;8350;52.316;10.530;2022-10-16T03:29:28;2.28;;;1.92;;
16478;SDS011;8350;52.316;10.530;2022-10-16T03:31:55;3.20;;;2.22;;
16478;SDS011;8350;52.316;10.530;2022-10-16T03:34:22;1.90;;;1.70;;
16478;SDS011;8350;52.316;10.530;2022-10-16T03:36:49;1.60;;;1.50;;
16478;SDS011;8350;52.316;10.530;2022-10-16T03:39:18;2.00;;;1.90;;
16478;SDS011;8350;52.316;10.530;2022-10-16T03:41:45;1.77;;;1.67;;
16478;SDS011;8350;52.316;10.530;2022-10-16T03:44:12;3.60;;;1.98;;
16478;SDS011;8350;52.316;10.530;2022-10-16T03:46:39;2.40;;;2.10;;
16478;SDS011;8350;52.316;10.530;2022-10-16T03:49:06;2.45;;;2.00;;
16478;SDS011;8350;52.316;10.530;2022-10-16T03:51:34;2.10;;;1.83;;
16478;SDS011;8350;52.316;10.530;2022-10-16T03:54:01;2.47;;;1.83;;
16478;SDS011;8350;52.316;10.530;2022-10-16T03:56:29;1.67;;;1.58;;
16478;SDS011;8350;52.316;10.530;2022-10-16T03:58:56;1.90;;;1.80;;
16478;SDS011;8350;52.316;10.530;2022-10-16T04:01:23;2.08;;;1.77;;
16478;SDS011;8350;52.316;10.530;2022-10-16T04:03:50;2.35;;;1.83;;
16478;SDS011;8350;52.316;10.530;2022-10-16T04:06:17;2.40;;;1.95;;
16478;SDS011;8350;52.316;10.530;2022-10-16T04:08:44;1.77;;;1.67;;
16478;SDS011;8350;52.316;10.530;2022-10-16T04:11:11;2.10;;;1.90;;
16478;SDS011;8350;52.316;10.530;2022-10-16T04:13:40;2.30;;;2.10;;
16478;SDS011;8350;52.316;10.530;2022-10-16T04:16:08;4.00;;;2.45;;
16478;SDS011;8350;52.316;10.530;2022-10-16T04:18:35;2.97;;;2.33;;
16478;SDS011;8350;52.316;10.530;2022-10-16T04:21:03;2.55;;;2.10;;
16478;SDS011;8350;52.316;10.530;2022-10-16T04:23:30;2.30;;;2.10;;
16478;SDS011;8350;52.316;10.530;2022-10-16T04:25:57;3.72;;;2.30;;
16478;SDS011;8350;52.316;10.530;2022-10-16T04:28:25;5.25;;;2.17;;
16478;SDS011;8350;52.316;10.530;2022-10-16T04:30:54;2.17;;;1.98;;
16478;SDS011;8350;52.316;10.530;2022-10-16T04:33:21;2.35;;;2.10;;
16478;SDS011;8350;52.316;10.530;2022-10-16T04:35:55;3.55;;;2.30;;
16478;SDS011;8350;52.316;10.530;2022-10-16T04:38:22;2.60;;;2.20;;
16478;SDS011;8350;52.316;10.530;2022-10-16T04:40:49;5.15;;;2.10;;
16478;SDS011;8350;52.316;10.530;2022-10-16T04:43:17;2.97;;;2.25;;
16478;SDS011;8350;52.316;10.530;2022-10-16T04:45:44;3.00;;;2.05;;
16478;SDS011;8350;52.316;10.530;2022-10-16T04:48:13;2.85;;;2.00;;
16478;SDS011;8350;52.316;10.530;2022-10-16T04:50:40;3.08;;;2.33;;
16478;SDS011;8350;52.316;10.530;2022-10-16T04:53:07;4.32;;;2.20;;
16478;SDS011;8350;52.316;10.530;2022-10-16T04:55:34;2.30;;;2.03;;
16478;SDS011;8350;52.316;10.530;2022-10-16T04:58:02;3.33;;;2.72;;
16478;SDS011;8350;52.316;10.530;2022-10-16T05:00:29;2.92;;;2.30;;
16478;SDS011;8350;52.316;10.530;2022-10-16T05:02:56;6.43;;;3.47;;
16478;SDS011;8350;52.316;10.530;2022-10-16T05:05:27;3.22;;;2.92;;
16478;SDS011;8350;52.316;10.530;2022-10-16T05:07:54;4.18;;;3.05;;
16478;SDS011;8350;52.316;10.530;2022-10-16T05:10:21;3.17;;;2.80;;
16478;SDS011;8350;52.316;10.530;2022-10-16T05:12:48;3.13;;;2.83;;
16478;SDS011;8350;52.316;10.530;2022-10-16T05:15:16;5.05;;;2.90;;
16478;SDS011;8350;52.316;10.530;2022-10-16T05:17:43;3.70;;;3.40;;
16478;SDS011;8350;52.316;10.530;2022-10-16T05:20:10;3.67;;;3.38;;
16478;SDS011;8350;52.316;10.530;2022-10-16T05:22:45;3.30;;;3.00;;
16478;SDS011;8350;52.316;10.530;2022-10-16T05:25:12;3.08;;;2.80;;
16478;SDS011;8350;52.316;10.530;2022-10-16T05:27:39;3.38;;;3.08;;
16478;SDS011;8350;52.316;10.530;2022-10-16T05:30:06;4.38;;;3.10;;
16478;SDS011;8350;52.316;10.530;2022-10-16T05:32:34;3.75;;;3.10;;
16478;SDS011;8350;52.316;10.530;2022-10-16T05:35:01;3.63;;;3.33;;
16478;SDS011;8350;52.316;10.530;2022-10-16T05:37:29;3.63;;;3.33;;
16478;SDS011;8350;52.316;10.530;2022-10-16T05:39:57;3.65;;;3.05;;
16478;SDS011;8350;52.316;10.530;2022-10-16T05:42:24;3.50;;;3.08;;
16478;SDS011;8350;52.316;10.530;2022-10-16T05:44:51;3.35;;;3.05;;
16478;SDS011;8350;52.316;10.530;2022-10-16T05:47:18;3.65;;;3.03;;
16478;SDS011;8350;52.316;10.530;2022-10-16T05:49:46;3.88;;;3.38;;
16478;SDS011;8350;52.316;10.530;2022-10-16T05:52:13;3.90;;;3.22;;
16478;SDS011;8350;52.316;10.530;2022-10-16T05:54:40;4.47;;;3.45;;
16478;SDS011;8350;52.316;10.530;2022-10-16T05:57:08;4.80;;;3.67;;
16478;SDS011;8350;52.316;10.530;2022-10-16T05:59:35;3.47;;;3.17;;
16478;SDS011;8350;52.316;10.530;2022-10-16T06:02:03;3.55;;;3.25;;
16478;SDS011;8350;52.316;10.530;2022-10-16T06:04:30;6.53;;;3.28;;
16478;SDS011;8350;52.316;10.530;2022-10-16T06:06:58;4.82;;;3.20;;
16478;SDS011;8350;52.316;10.530;2022-10-16T06:09:26;5.20;;;2.95;;
16478;SDS011;8350;52.316;10.530;2022-10-16T06:11:53;3.70;;;3.40;;
16478;SDS011;8350;52.316;10.530;2022-10-16T06:14:22;3.45;;;2.95;;
16478;SDS011;8350;52.316;10.530;2022-10-16T06:16:49;3.28;;;2.85;;
16478;SDS011;8350;52.316;10.530;2022-10-16T06:19:16;6.80;;;3.58;;
16478;SDS011;8350;52.316;10.530;2022-10-16T06:21:43;3.03;;;2.83;;
16478;SDS011;8350;52.316;10.530;2022-10-16T06:24:10;3.92;;;3.28;;
16478;SDS011;8350;52.316;10.530;2022-10-16T06:26:37;5.47;;;3.13;;
16478;SDS011;8350;52.316;10.530;2022-10-16T06:29:04;8.88;;;3.40;;
16478;SDS011;8350;52.316;10.530;2022-10-16T06:31:33;4.80;;;3.50;;
16478;SDS011;8350;52.316;10.530;2022-10-16T06:34:00;4.45;;;4.07;;
16478;SDS011;8350;52.316;10.530;2022-10-16T06:36:29;4.07;;;3.70;;
16478;SDS011;8350;52.316;10.530;2022-10-16T06:38:56;7.13;;;3.95;;
16478;SDS011;8350;52.316;10.530;2022-10-16T06:41:23;6.47;;;3.53;;
16478;SDS011;8350;52.316;10.530;2022-10-16T06:43:50;3.63;;;2.95;;
16478;SDS011;8350;52.316;10.530;2022-10-16T06:46:19;3.55;;;3.00;;
16478;SDS011;8350;52.316;10.530;2022-10-16T06:48:50;3.38;;;3.08;;
16478;SDS011;8350;52.316;10.530;2022-10-16T06:51:17;3.58;;;3.28;;
16478;SDS011;8350;52.316;10.530;2022-10-16T06:53:46;2.88;;;2.65;;
16478;SDS011;8350;52.316;10.530;2022-10-16T06:56:16;3.20;;;2.90;;
16478;SDS011;8350;52.316;10.530;2022-10-16T06:58:44;2.90;;;2.63;;
16478;SDS011;8350;52.316;10.530;2022-10-16T07:01:11;3.22;;;2.92;;
16478;SDS011;8350;52.316;10.530;2022-10-16T07:03:43;6.43;;;2.95;;
16478;SDS011;8350;52.316;10.530;2022-10-16T07:06:12;2.63;;;2.42;;
16478;SDS011;8350;52.316;10.530;2022-10-16T07:08:42;2.78;;;2.22;;
16478;SDS011;8350;52.316;10.530;2022-10-16T07:11:11;3.10;;;2.88;;
16478;SDS011;8350;52.316;10.530;2022-10-16T07:13:40;3.95;;;2.60;;
16478;SDS011;8350;52.316;10.530;2022-10-16T07:16:09;4.03;;;2.33;;
16478;SDS011;8350;52.316;10.530;2022-10-16T07:18:38;3.15;;;2.30;;
16478;SDS011;8350;52.316;10.530;2022-10-16T07:21:05;4.85;;;2.72;;
16478;SDS011;8350;52.316;10.530;2022-10-16T07:23:35;2.63;;;2.05;;
16478;SDS011;8350;52.316;10.530;2022-10-16T07:26:02;2.40;;;2.20;;
16478;SDS011;8350;52.316;10.530;2022-10-16T07:28:31;2.65;;;1.98;;
16478;SDS011;8350;52.316;10.530;2022-10-16T07:31:00;4.47;;;2.35;;
16478;SDS011;8350;52.316;10.530;2022-10-16T07:33:28;1.80;;;1.70;;
16478;SDS011;8350;52.316;10.530;2022-10-16T07:35:55;1.58;;;1.48;;
16478;SDS011;8350;52.316;10.530;2022-10-16T07:38:22;2.15;;;1.95;;
16478;SDS011;8350;52.316;10.530;2022-10-16T07:40:56;1.98;;;1.42;;
16478;SDS011;8350;52.316;10.530;2022-10-16T07:43:24;1.83;;;1.70;;
16478;SDS011;8350;52.316;10.530;2022-10-16T07:45:54;2.03;;;1.30;;
16478;SDS011;8350;52.316;10.530;2022-10-16T07:48:22;1.40;;;1.30;;
16478;SDS011;8350;52.316;10.530;2022-10-16T07:50:49;2.22;;;1.48;;
16478;SDS011;8350;52.316;10.530;2022-10-16T07:53:18;1.48;;;1.38;;
16478;SDS011;8350;52.316;10.530;2022-10-16T07:55:48;2.15;;;1.10;;
16478;SDS011;8350;52.316;10.530;2022-10-16T07:58:17;2.22;;;1.30;;
16478;SDS011;8350;52.316;10.530;2022-10-16T08:00:44;1.65;;;1.25;;
16478;SDS011;8350;52.316;10.530;2022-10-16T08:03:11;3.45;;;1.20;;
16478;SDS011;8350;52.316;10.530;2022-10-16T08:05:38;0.88;;;0.88;;
16478;SDS011;8350;52.316;10.530;2022-10-16T08:08:05;3.50;;;1.00;;
16478;SDS011;8350;52.316;10.530;2022-10-16T08:10:32;1.65;;;1.20;;
16478;SDS011;8350;52.316;10.530;2022-10-16T08:12:59;1.95;;;1.23;;
16478;SDS011;8350;52.316;10.530;2022-10-16T08:15:27;2.38;;;0.98;;
16478;SDS011;8350;52.316;10.530;2022-10-16T08:17:55;1.00;;;0.90;;
16478;SDS011;8350;52.316;10.530;2022-10-16T08:20:23;0.88;;;0.80;;
16478;SDS011;8350;52.316;10.530;2022-10-16T08:22:51;1.65;;;0.88;;
16478;SDS011;8350;52.316;10.530;2022-10-16T08:25:19;1.05;;;0.85;;
16478;SDS011;8350;52.316;10.530;2022-10-16T08:27:46;1.20;;;1.10;;
16478;SDS011;8350;52.316;10.530;2022-10-16T08:30:13;1.05;;;0.70;;
16478;SDS011;8350;52.316;10.530;2022-10-16T08:32:41;1.98;;;0.73;;
16478;SDS011;8350;52.316;10.530;2022-10-16T08:35:08;0.90;;;0.70;;
16478;SDS011;8350;52.316;10.530;2022-10-16T08:37:36;1.88;;;0.90;;
16478;SDS011;8350;52.316;10.530;2022-10-16T08:40:03;1.73;;;0.80;;
16478;SDS011;8350;52.316;10.530;2022-10-16T08:42:39;1.77;;;0.90;;
16478;SDS011;8350;52.316;10.530;2022-10-16T08:45:26;1.60;;;0.70;;
16478;SDS011;8350;52.316;10.530;2022-10-16T08:48:03;0.98;;;0.77;;
16478;SDS011;8350;52.316;10.530;2022-10-16T08:50:38;1.33;;;0.77;;
16478;SDS011;8350;52.316;10.530;2022-10-16T08:53:06;1.40;;;0.75;;
16478;SDS011;8350;52.316;10.530;2022-10-16T08:55:41;4.85;;;0.90;;
16478;SDS011;8350;52.316;10.530;2022-10-16T08:58:10;0.95;;;0.68;;
16478;SDS011;8350;52.316;10.530;2022-10-16T09:00:39;1.40;;;0.77;;
16478;SDS011;8350;52.316;10.530;2022-10-16T09:03:13;1.58;;;0.85;;
16478;SDS011;8350;52.316;10.530;2022-10-16T09:05:49;2.10;;;0.80;;
16478;SDS011;8350;52.316;10.530;2022-10-16T09:08:26;2.22;;;0.98;;
16478;SDS011;8350;52.316;10.530;2022-10-16T09:10:59;4.25;;;0.77;;
16478;SDS011;8350;52.316;10.530;2022-10-16T09:13:34;1.10;;;0.80;;
16478;SDS011;8350;52.316;10.530;2022-10-16T09:16:12;0.55;;;0.50;;
16478;SDS011;8350;52.316;10.530;2022-10-16T09:18:48;1.02;;;0.93;;
16478;SDS011;8350;52.316;10.530;2022-10-16T09:21:23;2.33;;;1.08;;
16478;SDS011;8350;52.316;10.530;2022-10-16T09:23:53;0.70;;;0.70;;
16478;SDS011;8350;52.316;10.530;2022-10-16T09:26:23;3.08;;;0.65;;
16478;SDS011;8350;52.316;10.530;2022-10-16T09:28:51;3.00;;;1.02;;
16478;SDS011;8350;52.316;10.530;2022-10-16T09:31:20;1.65;;;0.77;;
16478;SDS011;8350;52.316;10.530;2022-10-16T09:33:51;2.65;;;0.95;;
16478;SDS011;8350;52.316;10.530;2022-10-16T09:36:21;4.05;;;0.85;;
16478;SDS011;8350;52.316;10.530;2022-10-16T09:39:01;1.48;;;0.90;;
16478;SDS011;8350;52.316;10.530;2022-10-16T09:41:30;2.20;;;0.70;;
16478;SDS011;8350;52.316;10.530;2022-10-16T09:44:01;2.05;;;0.73;;
16478;SDS011;8350;52.316;10.530;2022-10-16T09:46:30;0.98;;;0.70;;
16478;SDS011;8350;52.316;10.530;2022-10-16T09:49:00;1.63;;;0.85;;
16478;SDS011;8350;52.316;10.530;2022-10-16T09:51:32;1.67;;;0.70;;
16478;SDS011;8350;52.316;10.530;2022-10-16T09:54:01;2.40;;;0.75;;
16478;SDS011;8350;52.316;10.530;2022-10-16T09:56:38;1.13;;;0.70;;
16478;SDS011;8350;52.316;10.530;2022-10-16T09:59:10;1.05;;;0.68;;
16478;SDS011;8350;52.316;10.530;2022-10-16T10:01:38;2.15;;;0.60;;
16478;SDS011;8350;52.316;10.530;2022-10-16T10:04:08;1.77;;;0.70;;
16478;SDS011;8350;52.316;10.530;2022-10-16T10:06:37;1.85;;;0.63;;
16478;SDS011;8350;52.316;10.530;2022-10-16T10:09:17;2.88;;;0.63;;
16478;SDS011;8350;52.316;10.530;2022-10-16T10:11:50;0.85;;;0.60;;
16478;SDS011;8350;52.316;10.530;2022-10-16T10:14:26;1.55;;;0.90;;
16478;SDS011;8350;52.316;10.530;2022-10-16T10:19:49;1.48;;;0.80;;
16478;SDS011;8350;52.316;10.530;2022-10-16T10:22:19;0.73;;;0.60;;
16478;SDS011;8350;52.316;10.530;2022-10-16T10:25:15;1.33;;;0.60;;
16478;SDS011;8350;52.316;10.530;2022-10-16T10:28:17;1.98;;;0.63;;
16478;SDS011;8350;52.316;10.530;2022-10-16T10:30:55;2.40;;;0.60;;
16478;SDS011;8350;52.316;10.530;2022-10-16T10:33:28;1.85;;;0.60;;
16478;SDS011;8350;52.316;10.530;2022-10-16T10:36:06;1.05;;;0.50;;
16478;SDS011;8350;52.316;10.530;2022-10-16T10:38:43;1.17;;;0.43;;
16478;SDS011;8350;52.316;10.530;2022-10-16T10:41:19;1.90;;;0.70;;
16478;SDS011;8350;52.316;10.530;2022-10-16T10:44:05;1.73;;;0.65;;
16478;SDS011;8350;52.316;10.530;2022-10-16T10:46:40;3.30;;;0.80;;
16478;SDS011;8350;52.316;10.530;2022-10-16T10:52:13;1.23;;;0.30;;
16478;SDS011;8350;52.316;10.530;2022-10-16T10:55:03;1.45;;;0.60;;
16478;SDS011;8350;52.316;10.530;2022-10-16T10:57:39;1.10;;;0.47;;
16478;SDS011;8350;52.316;10.530;2022-10-16T11:00:16;1.27;;;0.50;;
16478;SDS011;8350;52.316;10.530;2022-10-16T11:02:50;1.30;;;0.40;;
16478;SDS011;8350;52.316;10.530;2022-10-16T11:05:31;1.48;;;0.57;;
16478;SDS011;8350;52.316;10.530;2022-10-16T11:08:06;0.43;;;0.30;;
16478;SDS011;8350;52.316;10.530;2022-10-16T11:10:42;0.85;;;0.40;;
16478;SDS011;8350;52.316;10.530;2022-10-16T11:13:20;2.55;;;0.45;;
16478;SDS011;8350;52.316;10.530;2022-10-16T11:15:55;1.15;;;0.55;;
16478;SDS011;8350;52.316;10.530;2022-10-16T11:18:32;2.08;;;0.50;;
16478;SDS011;8350;52.316;10.530;2022-10-16T11:21:07;1.00;;;0.47;;
16478;SDS011;8350;52.316;10.530;2022-10-16T11:23:40;1.23;;;0.40;;
16478;SDS011;8350;52.316;10.530;2022-10-16T11:26:14;0.82;;;0.45;;
16478;SDS011;8350;52.316;10.530;2022-10-16T11:28:46;1.05;;;0.32;;
16478;SDS011;8350;52.316;10.530;2022-10-16T11:31:17;1.17;;;0.50;;
16478;SDS011;8350;52.316;10.530;2022-10-16T11:33:49;1.88;;;0.40;;
16478;SDS011;8350;52.316;10.530;2022-10-16T11:36:23;1.13;;;0.60;;
16478;SDS011;8350;52.316;10.530;2022-10-16T11:38:59;1.50;;;0.40;;
16478;SDS011;8350;52.316;10.530;2022-10-16T11:41:32;0.80;;;0.43;;
16478;SDS011;8350;52.316;10.530;2022-10-16T11:44:15;1.65;;;0.60;;
16478;SDS011;8350;52.316;10.530;2022-10-16T11:47:01;1.58;;;0.47;;
16478;SDS011;8350;52.316;10.530;2022-10-16T11:49:38;1.73;;;0.50;;
16478;SDS011;8350;52.316;10.530;2022-10-16T11:52:07;1.58;;;0.28;;
16478;SDS011;8350;52.316;10.530;2022-10-16T11:54:45;2.88;;;0.88;;
16478;SDS011;8350;52.316;10.530;2022-10-16T11:57:17;1.63;;;0.50;;
16478;SDS011;8350;52.316;10.530;2022-10-16T11:59:47;0.57;;;0.47;;
16478;SDS011;8350;52.316;10.530;2022-10-16T12:02:30;1.63;;;0.55;;
16478;SDS011;8350;52.316;10.530;2022-10-16T12:05:06;1.35;;;0.60;;
16478;SDS011;8350;52.316;10.530;2022-10-16T12:07:42;1.80;;;0.43;;
16478;SDS011;8350;52.316;10.530;2022-10-16T12:10:21;2.35;;;0.77;;
16478;SDS011;8350;52.316;10.530;2022-10-16T12:12:52;0.73;;;0.32;;
16478;SDS011;8350;52.316;10.530;2022-10-16T12:15:20;1.92;;;0.40;;
16478;SDS011;8350;52.316;10.530;2022-10-16T12:17:50;1.88;;;0.45;;
16478;SDS011;8350;52.316;10.530;2022-10-16T12:20:20;2.38;;;0.50;;
16478;SDS011;8350;52.316;10.530;2022-10-16T12:22:53;3.03;;;0.73;;
16478;SDS011;8350;52.316;10.530;2022-10-16T12:25:25;1.92;;;0.40;;
16478;SDS011;8350;52.316;10.530;2022-10-16T12:27:54;0.80;;;0.38;;
16478;SDS011;8350;52.316;10.530;2022-10-16T12:30:26;1.25;;;0.50;;
16478;SDS011;8350;52.316;10.530;2022-10-16T12:32:56;1.67;;;0.57;;
16478;SDS011;8350;52.316;10.530;2022-10-16T12:35:27;2.25;;;0.60;;
16478;SDS011;8350;52.316;10.530;2022-10-16T12:38:04;1.15;;;0.40;;
16478;SDS011;8350;52.316;10.530;2022-10-16T12:40:35;12.18;;;2.00;;
16478;SDS011;8350;52.316;10.530;2022-10-16T12:43:23;1.55;;;0.30;;
16478;SDS011;8350;52.316;10.530;2022-10-16T12:46:00;1.20;;;0.43;;
16478;SDS011;8350;52.316;10.530;2022-10-16T12:48:28;1.30;;;0.47;;
16478;SDS011;8350;52.316;10.530;2022-10-16T12:50:56;1.98;;;0.68;;
16478;SDS011;8350;52.316;10.530;2022-10-16T12:53:24;1.88;;;0.50;;
16478;SDS011;8350;52.316;10.530;2022-10-16T12:56:01;2.10;;;0.60;;
16478;SDS011;8350;52.316;10.530;2022-10-16T13:01:25;1.52;;;0.43;;
16478;SDS011;8350;52.316;10.530;2022-10-16T13:07:19;1.88;;;0.45;;
16478;SDS011;8350;52.316;10.530;2022-10-16T13:10:00;1.92;;;0.40;;
16478;SDS011;8350;52.316;10.530;2022-10-16T13:12:44;1.25;;;0.40;;
16478;SDS011;8350;52.316;10.530;2022-10-16T13:15:32;1.25;;;0.30;;
16478;SDS011;8350;52.316;10.530;2022-10-16T13:18:19;2.03;;;0.45;;
16478;SDS011;8350;52.316;10.530;2022-10-16T13:20:54;1.92;;;0.47;;
16478;SDS011;8350;52.316;10.530;2022-10-16T13:23:31;0.65;;;0.30;;
16478;SDS011;8350;52.316;10.530;2022-10-16T13:26:07;2.17;;;0.50;;
16478;SDS011;8350;52.316;10.530;2022-10-16T13:28:42;1.55;;;0.40;;
16478;SDS011;8350;52.316;10.530;2022-10-16T13:31:11;1.15;;;0.40;;
16478;SDS011;8350;52.316;10.530;2022-10-16T13:33:43;0.70;;;0.30;;
16478;SDS011;8350;52.316;10.530;2022-10-16T13:36:19;0.50;;;0.38;;
16478;SDS011;8350;52.316;10.530;2022-10-16T13:38:47;2.10;;;0.40;;
16478;SDS011;8350;52.316;10.530;2022-10-16T13:41:15;1.33;;;0.30;;
16478;SDS011;8350;52.316;10.530;2022-10-16T13:43:47;2.85;;;0.50;;
16478;SDS011;8350;52.316;10.530;2022-10-16T13:46:17;3.03;;;0.32;;
16478;SDS011;8350;52.316;10.530;2022-10-16T13:48:55;0.75;;;0.40;;
16478;SDS011;8350;52.316;10.530;2022-10-16T13:51:23;1.27;;;0.52;;
16478;SDS011;8350;52.316;10.530;2022-10-16T13:53:50;0.60;;;0.22;;
16478;SDS011;8350;52.316;10.530;2022-10-16T13:56:18;1.65;;;0.30;;
16478;SDS011;8350;52.316;10.530;2022-10-16T13:58:57;0.93;;;0.40;;
16478;SDS011;8350;52.316;10.530;2022-10-16T14:01:25;0.40;;;0.30;;
16478;SDS011;8350;52.316;10.530;2022-10-16T14:03:59;2.28;;;0.65;;
16478;SDS011;8350;52.316;10.530;2022-10-16T14:06:29;0.45;;;0.20;;
16478;SDS011;8350;52.316;10.530;2022-10-16T14:09:01;0.63;;;0.38;;
16478;SDS011;8350;52.316;10.530;2022-10-16T14:11:31;0.30;;;0.25;;
16478;SDS011;8350;52.316;10.530;2022-10-16T14:14:00;0.98;;;0.32;;
16478;SDS011;8350;52.316;10.530;2022-10-16T14:16:29;0.75;;;0.43;;
16478;SDS011;8350;52.316;10.530;2022-10-16T14:18:59;1.27;;;0.40;;
16478;SDS011;8350;52.316;10.530;2022-10-16T14:21:28;0.68;;;0.38;;
16478;SDS011;8350;52.316;10.530;2022-10-16T14:23:55;0.47;;;0.40;;
16478;SDS011;8350;52.316;10.530;2022-10-16T14:26:23;1.35;;;0.55;;
16478;SDS011;8350;52.316;10.530;2022-10-16T14:29:09;1.27;;;0.40;;
16478;SDS011;8350;52.316;10.530;2022-10-16T14:31:38;0.75;;;0.40;;
16478;SDS011;8350;52.316;10.530;2022-10-16T14:36:52;2.05;;;0.40;;
16478;SDS011;8350;52.316;10.530;2022-10-16T14:39:20;1.63;;;0.45;;
16478;SDS011;8350;52.316;10.530;2022-10-16T14:41:49;1.73;;;0.30;;
16478;SDS011;8350;52.316;10.530;2022-10-16T14:44:19;1.08;;;0.43;;
16478;SDS011;8350;52.316;10.530;2022-10-16T14:46:52;1.45;;;0.88;;
16478;SDS011;8350;52.316;10.530;2022-10-16T14:49:19;0.50;;;0.20;;
16478;SDS011;8350;52.316;10.530;2022-10-16T14:51:48;1.00;;;0.50;;
16478;SDS011;8350;52.316;10.530;2022-10-16T14:54:16;1.27;;;0.43;;
16478;SDS011;8350;52.316;10.530;2022-10-16T14:56:47;2.58;;;0.47;;
16478;SDS011;8350;52.316;10.530;2022-10-16T14:59:19;2.17;;;0.52;;
16478;SDS011;8350;52.316;10.530;2022-10-16T15:01:50;1.48;;;0.50;;
16478;SDS011;8350;52.316;10.530;2022-10-16T15:04:18;3.10;;;0.93;;
16478;SDS011;8350;52.316;10.530;2022-10-16T15:06:45;2.60;;;0.68;;
16478;SDS011;8350;52.316;10.530;2022-10-16T15:09:12;1.20;;;0.32;;
16478;SDS011;8350;52.316;10.530;2022-10-16T15:11:40;2.55;;;0.65;;
16478;SDS011;8350;52.316;10.530;2022-10-16T15:14:08;2.83;;;0.70;;
16478;SDS011;8350;52.316;10.530;2022-10-16T15:16:39;2.25;;;0.82;;
16478;SDS011;8350;52.316;10.530;2022-10-16T15:19:06;0.98;;;0.60;;
16478;SDS011;8350;52.316;10.530;2022-10-16T15:21:33;1.35;;;0.63;;
16478;SDS011;8350;52.316;10.530;2022-10-16T15:24:01;0.40;;;0.40;;